Pagrindinis puslapis
METAR-TAF:

METAR-TAF

Oro uostai :

Svolvær, Norvegija

platuma: 68-15N, ilguma: 014-40E, Aukštis: 0 m

Dabartinis oras

Ataskaita buvo paskelbta 54 minutes, ne 11:50 UTC
Vėjas 4 kt iš Pietryčių
Temperatūra 4°C
Drėgmė 44%
Slėgis 1021 hPa
Matomumas 10 km arba daugiau

METAR: ENSH 201150Z AUTO 13004KT 9999 NCD 04/M07 Q1021 RMK WIND 0150FT /////KT

Laikas: 14:44 (12:44 UTC)

Prognozė

Ataskaita buvo paskelbta 4 valandos ir 44 minutes, ne 08:00 UTC
Prognozė galioja nuo 20 metu 09 UTC su 20 metu 13 UTC
Vėjas 8 kt iš Rytų
Matomumas 10 km arba daugiau
nėra debesų žemiau 1500 m ir nėra kamuolinių lietaus debesų
Laikinai
nuo 20 metu 12 UTC su 20 metu 13 UTC
Vėjas 10 kt iš Pietų/Pietvakarių

TAF: ENSH 200800Z 2009/2013 10008KT CAVOK TEMPO 2012/2013 20010KT

Orai ataskaitas ir orų prognozės (METAR, TAF).

turimą stotys yra geltonos ir raudonos taškus žemėlapyje.

Perkelti pele per norėdami pamatyti stoties vardą.

Tada spustelėkite, norėdami matyti oro stebėjimo ir prognozės.

Norėdami pakeisti žemėlapį: spustelėkite ant žalios mygtukų su juodo kryžiaus žemyn,; žalią mygtuką su brūkšneliu, jei norite nutolinti; arba žalių rodyklių gretimoms žemėlapius.


METAR-TAF: